Chevrolet SSR 2004-2006 (SSR)

Collector vehicles for sale.
User avatar
Feed
Site Admin
Posts: 6180
Joined: Fri Jul 31, 2020 9:57 am

Chevrolet SSR 2004-2006 (SSR)

Post by Feed »

Looking for something else? Check the Directory for what you're after. Don't see it? Make a request.
Trying to sell one, test the waters, or just show off? Post it in our Readers' Rides section.
If you like this kind of thing, subscribe to our mailing list for updates. It's worth your time, I promise. Something broken? Have an idea? Come say hi in our Discord server.
ImageYearTitleMileagePriceCityStateEnds

Image Year Title Mileage Price City State Date Found
Image 2004 Chevrolet SSR Convertible Pickup 2D 53000 $10995 Yonkers New York 2020-11-24
Image 2004 Chevrolet SSR Convertible Pickup 2D 1000 $50000 Loogootee Indiana 2020-11-24
Image 2004 Chevrolet SSR Convertible Pickup 2D 56000 $17500 McAlester Oklahoma 2020-11-24
Image 2004 Chevrolet SSR Convertible Pickup 2D 52000 $22888 St Louis Missouri 2020-11-24
Image 2004 Chevrolet SSR Convertible Pickup 2D 110000 $16800 Radcliff Kentucky 2020-11-24
Image 2004 Chevrolet SSR Convertible Pickup 2D 23000 $24350 Buford Georgia 2020-11-24
Image 2004 Chevrolet SSR Convertible Pickup 2D 80000 $10000 Temple Texas 2020-11-19
Image 2004 Chevrolet SSR Convertible Pickup 2D 18000 $25767 Lafayette Louisiana 2020-11-19
Image 2004 Chevrolet SSR Convertible Pickup 2D 58000 $21000 Hickory North Carolina 2020-11-19
Image 2004 Chevrolet SSR Convertible Pickup 2D 40000 $20000 Henrico Virginia 2020-11-19
Image 2004 Chevrolet SSR Convertible Pickup 2D 5000 $29000 Decatur Alabama 2020-11-17
Image 2004 Chevrolet SSR Convertible Pickup 2D 57000 $24500 Floral City Florida 2020-11-17
Image 2004 Chevrolet SSR 95000 $15500 Oakhurst California 2020-11-17
Image 2004 Chevrolet SSR Convertible Pickup 2D 92000 $18500 Herndon Virginia 2020-11-17
Image 2004 Chevrolet SSR Convertible Pickup 2D 60000 $20999 Winchester Virginia 2020-11-17
Image 2004 Chevrolet SSR Convertible Pickup 2D 33000 $25498 Fredericksburg Virginia 2020-11-17
Image 2004 Chevrolet SSR 123000 $2500 Everett Massachusetts 2020-11-17
Image 2004 Chevrolet SSR Convertible Pickup 2D 138000 $12000 Savannah Tennessee 2020-11-14
Image 2004 Chevrolet SSR 20000 $25000 Jackson Springs North Carolina 2020-11-14
Image 2004 Chevrolet SSR Convertible Pickup 2D 89000 $19900 Forest Lake Minnesota 2020-11-13
Image 2004 Chevrolet SSR Convertible Pickup 2D 10000 $25999 Detroit Lakes Minnesota 2020-11-13
Image 2004 Chevrolet SSR Convertible Pickup 2D 89000 $18495 Hinckley Minnesota 2020-11-13
Image 2004 Chevrolet SSR Convertible Pickup 2D 125000 $17585 San Antonio Texas 2020-11-13
Image 2004 Chevrolet SSR Convertible Pickup 2D 92000 $14000 Mission Texas 2020-11-13
Image 2004 Chevrolet SSR Convertible Pickup 2D 18000 $26990 Lafayette Louisiana 2020-11-13
Image 2004 Chevrolet SSR 60000 $18900 Hammond Louisiana 2020-11-13
Image 2004 Chevrolet SSR Convertible Pickup 2D 130000 $17500 Miami Florida 2020-11-13
Image 2004 Chevrolet ssr 100000 $18000 Miami Florida 2020-11-13
Image 2004 Chevrolet SSR Convertible Pickup 2D 100000 $20000 Miramar Florida 2020-11-13
Image 2004 Chevrolet SSR Convertible Pickup 2D 108000 $15000 Kissimmee Florida 2020-11-13
Image 2004 Chevrolet SSR Convertible Pickup 2D 12000 $25000 Ormond Beach Florida 2020-11-13
Image 2004 Chevrolet SSR Convertible Pickup 2D 58000 $25500 Dade City Florida 2020-11-13
Image 2004 Chevrolet SSR Convertible Pickup 2D 100000 $7000 Huntsville Alabama 2020-11-13
Image 2004 Chevrolet SSR Convertible Pickup 2D 140000 $14000 Martin Georgia 2020-11-13
Image 2004 Chevrolet SSR Convertible Pickup 2D 23000 $23000 Bethlehem Georgia 2020-11-13
Image 2004 Chevrolet SSR Convertible Pickup 2D 70000 $19799 Marietta Georgia 2020-11-13
Image 2004 Chevrolet SSR Convertible Pickup 2D 116000 $23000 Montgomery Alabama 2020-11-13
Image 2004 Chevrolet SSR Convertible Pickup 2D 60000 $22000 Watkinsville Georgia 2020-11-13
Image 2004 Chevrolet SSR Convertible Pickup 2D 125000 $15500 Ellisville Mississippi 2020-11-13
Image 2004 Chevrolet SSR 62000 $21000 Eglin Air Force Base Florida 2020-11-13
Image 2004 Chevrolet SSR Convertible Pickup 2D 65000 $25000 Theodore Alabama 2020-11-13
Image 2004 Chevrolet SSR Convertible Pickup 2D 20000 $25000 Las Cruces New Mexico 2020-11-13
Image 2004 Chevrolet SSR Convertible Pickup 2D 26000 $28500 Liberty South Carolina 2020-11-13
Image 2004 Chevrolet SSR Convertible Pickup 2D 57000 $25000 Jamestown South Carolina 2020-11-13
Image 2004 Chevrolet SSR Convertible Pickup 2D 36000 $29000 Staten Island New York 2020-11-13
Image 2004 Chevrolet SSR Convertible Pickup 2D 82000 $17995 Rapid City South Dakota 2020-11-13
Image 2004 Chevrolet SSR Convertible Pickup 2D 63000 $22900 Hermiston Oregon 2020-11-13
Image 2004 Chevrolet SSR Convertible Pickup 2D 47000 $21800 Centralia Washington 2020-11-13
Image 2004 Chevrolet SSR Convertible Pickup 2D 20000 $26000 Corvallis Oregon 2020-11-13
Image 2004 Chevrolet SSR BASE 101000 $18999 Kansas City MO 2020-11-13
Image 2004 Chevrolet SSR Convertible Pickup 2D 27000 $20000 Maryland Heights MO 2020-11-13
Image 2004 Chevrolet SSR Convertible Pickup 2D 48000 $20990 Arkansas City KS 2020-11-13
Image 2004 Chevrolet SSR 37000 $19795 Onawa Iowa 2020-11-13
Image 2004 Chevrolet SSR Convertible Pickup 2D 83000 $15977 Joplin Missouri 2020-11-13
Image 2004 Chevrolet SSR Convertible Pickup 2D 83000 $17995 Nixa Missouri 2020-11-13
Image 2004 Chevrolet SSR 14000 $28000 West Plains Missouri 2020-11-13
Image 2004 Chevrolet SSR Convertible Pickup 2D 60000 $19599 Winchester Virginia 2020-11-13
Image 2004 Chevrolet SSR Convertible Pickup 2D 37000 $18500 Clarksville Virginia 2020-11-13
Image 2004 Chevrolet SSR Convertible Pickup 2D 37000 $21999 Winchester Virginia 2020-11-13
Image 2004 Chevrolet SSR Convertible Pickup 2D 42000 $20000 Hollidaysburg Pennsylvania 2020-11-13
Image 2004 Chevrolet SSR Convertible Pickup 2D 10000 $28200 Harrington Delaware 2020-11-13
Image 2004 Chevrolet SSR 19000 $29750 Saxonburg Pennsylvania 2020-11-13
Image 2004 Chevrolet SSR Convertible Pickup 2D 24000 $23900 Wooster Ohio 2020-11-13
Image 2004 Chevrolet SSR Convertible Pickup 2D 26000 $27000 Morgantown West Virginia 2020-11-13
Image 2004 Chevrolet SSR Convertible Pickup 2D 19000 $26900 New Philadelphia Ohio 2020-11-13
Image 2004 Chevrolet SSR Convertible Pickup 2D 47000 $20000 Ardmore Oklahoma 2020-11-13
Image 2004 Chevrolet SSR Convertible Pickup 2D 133000 $17985 San Antonio Texas 2020-11-13
Image 2004 Chevrolet SSR 55000 $20000 Austin Texas 2020-11-13
Image 2004 Chevrolet SSR Convertible Pickup 2D 157000 $16500 Ada Oklahoma 2020-11-13
Image 2004 Chevrolet SSR Convertible Pickup 2D 28000 $20598 Sour Lake Texas 2020-11-13
Image 2004 Chevrolet SSR Convertible Pickup 2D 47000 $22500 Ardmore Oklahoma 2020-11-13
Image 2004 Chevrolet SSR Convertible Pickup 2D 16000 $26995 Bossier City Louisiana 2020-11-13
Image 2004 Chevrolet SSR Convertible Pickup 2D 47000 $24999 Ardmore Oklahoma 2020-11-13
Image 2004 Chevrolet SSR 48000 $23500 Carleton Michigan 2020-11-13
Image 2004 Chevrolet SSR Convertible Pickup 2D 85000 $12500 Wabash Indiana 2020-11-13
Image 2004 Chevrolet SSR Convertible Pickup 2D 46000 $26500 Dewitt Michigan 2020-11-13
Image 2004 Chevrolet SSR 72000 $18500 Decatur Michigan 2020-11-13
Image 2004 Chevrolet SSR Convertible Pickup 2D 23000 $24500 Louisville Kentucky 2020-11-13
Image 2004 Chevrolet SSR 16000 $25500 Homer Michigan 2020-11-13
Image 2004 Chevrolet SSR 70000 $10000 Girard Ohio 2020-11-13
Image 2004 Chevrolet SSR Convertible Pickup 2D 69000 $22500 Bickmore West Virginia 2020-11-13
Image 2004 Chevrolet SSR Convertible Pickup 2D 12000 $25000 Cedar Minnesota 2020-11-13
Image 2004 Chevrolet SSR Convertible Pickup 2D 70000 $22500 Inver Grove Heights Minnesota 2020-11-13
Image 2004 Chevrolet SSR Convertible Pickup 2D 56000 $19995 Suamico Wisconsin 2020-11-13
Image 2004 Chevrolet SSR Convertible Pickup 2D 120000 $10000 Phoenix Arizona 2020-11-13
Image 2004 Chevrolet SSR Convertible Pickup 2D 50000 $17600 Murrieta California 2020-11-13
Image 2004 Chevrolet SSR 54000 $19000 Las Vegas Nevada 2020-11-13
Image 2004 Chevrolet SSR Convertible Pickup 2D 13000 $28999 Tucson Arizona 2020-11-13
Image 2004 Chevrolet SSR Convertible Pickup 2D 31000 $30000 Las Vegas Nevada 2020-11-13
Image 2004 Chevrolet SSR Convertible Pickup 2D 74000 $25000 Richmond California 2020-11-13
Image 2004 Chevrolet SSR Convertible Pickup 2D 45000 $24000 San Carlos California 2020-11-13
Image 2004 Chevrolet SSR Convertible Pickup 2D 26000 $32000 Antioch California 2020-11-13
Image 2004 Chevrolet SSR 39000 $26000 Adelanto California 2020-11-13
Image 2004 Chevrolet SSR 41000 $30000 Bakersfield California 2020-11-13
Image 2004 Chevrolet SSR Convertible Pickup 2D 100000 $15981 St Louis Missouri 2020-11-13
Image 2004 Chevrolet SSR Convertible Pickup 2D 98000 $16500 Murfreesboro Tennessee 2020-11-13
Image 2004 Chevrolet SSR Convertible Pickup 2D 62000 $24999 Evansville Indiana 2020-11-13
Image 2004 Chevrolet SSR Convertible Pickup 2D 62000 $24999 Owensboro Kentucky 2020-11-13
Image 2004 Chevrolet SSR Convertible Pickup 2D 186000 $35000 Westmoreland Tennessee 2020-11-13
Image 2004 Chevrolet SSR Convertible Pickup 2D 35000 $25950 Knoxville Tennessee 2020-11-13
Image 2004 Chevrolet SSR 24000 $23900 Jacksboro Tennessee 2020-11-13
Image 2004 Chevrolet SSR Convertible Pickup 2D 28000 $20598 Sour Lake Texas 2020-11-10
Image 2004 Chevrolet SSR Convertible Pickup 2D 83000 $17995 Nixa Missouri 2020-11-10
Image 2004 Chevrolet SSR Convertible Pickup 2D 186000 $35000 Westmoreland Tennessee 2020-11-10
Image 2004 Chevrolet SSR Convertible Pickup 2D 18000 $26990 Lafayette Louisiana 2020-11-10
Image 2004 Chevrolet SSR Convertible Pickup 2D 47000 $22500 Ardmore Oklahoma 2020-11-10
Image 2004 Chevrolet SSR Convertible Pickup 2D 56000 $19995 Suamico Wisconsin 2020-11-10
Image 2004 Chevrolet SSR Convertible Pickup 2D 82000 $17995 Rapid City South Dakota 2020-11-10
Image 2004 Chevrolet SSR Convertible Pickup 2D 100000 $7000 Huntsville Alabama 2020-11-07
Image 2004 Chevrolet SSR Convertible Pickup 2D 37000 $21999 Winchester Virginia 2020-11-07
Image 2004 Chevrolet SSR Convertible Pickup 2D 74000 $25000 Richmond California 2020-11-06
Image 2004 Chevrolet SSR Convertible Pickup 2D 45000 $25000 San Carlos California 2020-11-06
Image 2004 Chevrolet SSR Convertible Pickup 2D 13000 $28999 Tucson Arizona 2020-11-06
Image 2004 Chevrolet SSR Convertible Pickup 2D 98000 $16500 Murfreesboro Tennessee 2020-11-06
Image 2004 Chevrolet SSR 19000 $29750 Saxonburg Pennsylvania 2020-11-06
Image 2004 Chevrolet SSR Convertible Pickup 2D 42000 $20000 Hollidaysburg Pennsylvania 2020-11-06
Image 2004 Chevrolet SSR Convertible Pickup 2D 46000 $26500 Dewitt Michigan 2020-11-06
Image 2004 Chevrolet SSR Convertible Pickup 2D 37000 $18500 Clarksville Virginia 2020-11-06
Image 2004 Chevrolet SSR Convertible Pickup 2D 23000 $23000 Bethlehem Georgia 2020-11-06
Image 2004 Chevrolet SSR Convertible Pickup 2D 34000 $18500 Anniston Alabama 2020-11-06
Image 2004 Chevrolet SSR Convertible Pickup 2D 37000 $21000 Atlanta Georgia 2020-11-06
Image 2004 Chevrolet SSR BASE 101000 $18999 Kansas City MO 2020-11-06
Image 2004 Chevrolet SSR Convertible Pickup 2D 10000 $28200 Harrington Delaware 2020-11-06
Image 2004 Chevrolet SSR Convertible Pickup 2D 10000 $25999 Detroit Lakes Minnesota 2020-10-30
Image 2004 Chevrolet SSR 61000 $21500 Hernando Mississippi 2020-10-30
Image 2004 Chevrolet SSR Convertible Pickup 2D 62000 $24999 Evansville Indiana 2020-10-30
Image 2004 Chevrolet SSR Convertible Pickup 2D 63000 $22900 Hermiston Oregon 2020-10-30
Image 2004 Chevrolet SSR Convertible Pickup 2D 130000 $17500 Miami Florida 2020-10-30
Image 2004 Chevrolet SSR Convertible Pickup 2D 133000 $17985 San Antonio Texas 2020-10-30
Image 2004 Chevrolet SSR Convertible Pickup 2D 20000 $20000 Las Cruces New Mexico 2020-10-27
Image 2004 Chevrolet SSR Convertible Pickup 2D 125000 $17585 San Antonio Texas 2020-10-27
Image 2004 Chevrolet SSR Convertible Pickup 2D 100000 $15981 St Louis Missouri 2020-10-27
Image 2004 Chevrolet SSR Convertible Pickup 2D 85000 $12500 Wabash Indiana 2020-10-27
Image 2004 Chevrolet SSR Convertible Pickup 2D 140000 $14000 Martin Georgia 2020-10-27
Image 2004 Chevrolet SSR 170000 $8500 Denver Colorado 2020-10-27
Image 2005 Chevrolet SSR Convertible Pickup 2D 22000 $32980 Lubbock Texas 2020-11-24
Image 2005 Chevrolet SSR Convertible Pickup 2D 19000 $31000 Cincinnati Ohio 2020-11-24
Image 2005 Chevrolet SSR 40000 $20000 Livingston Texas 2020-11-21
Image 2005 Chevrolet SSR Convertible Pickup 2D 49000 $24900 Johnson City New York 2020-11-21
Image 2005 Chevrolet SSR Convertible Pickup 2D 68000 $22500 Sarasota Florida 2020-11-17
Image 2005 Chevrolet SSR Convertible Pickup 2D 87000 $13250 Miami Florida 2020-11-17
Image 2005 Chevrolet SSR Convertible Pickup 2D 12000 $29295 St Louis Missouri 2020-11-17
Image 2005 Chevrolet SSR 50000 $26999 Puyallup Washington 2020-11-14
Image 2005 Chevrolet SSR Convertible Pickup 2D 104000 $17500 Show Low Arizona 2020-11-14
Image 2005 Chevrolet SSR Convertible Pickup 2D 102000 $18300 Baytown Texas 2020-11-14
Image 2005 Chevrolet SSR Convertible Pickup 2D 73000 $21000 Brainerd Minnesota 2020-11-13
Image 2005 Chevrolet SSR Convertible Pickup 2D 31000 $29999 Fertile Minnesota 2020-11-13
Image 2005 Chevrolet SSR Convertible Pickup 2D 64000 $25000 Fort Lauderdale Florida 2020-11-13
Image 2005 Chevrolet SSR Convertible Pickup 2D 34000 $26630 Pembroke Pines Florida 2020-11-13
Image 2005 Chevrolet SSR Convertible Pickup 2D 67000 $29500 Edgewater Florida 2020-11-13
Image 2005 Chevrolet SSR Convertible Pickup 2D 40000 $21500 Belchertown Massachusetts 2020-11-13
Image 2005 Chevrolet SSR Convertible Pickup 2D 88000 $20000 Sterling New York 2020-11-13
Image 2005 Chevrolet SSR Convertible Pickup 2D 39000 $28888 Dallas Georgia 2020-11-13
Image 2005 Chevrolet SSR Convertible Pickup 2D 10000 $32500 Athens Georgia 2020-11-13
Image 2005 Chevrolet SSR Convertible Pickup 2D 35000 $30000 Denver Colorado 2020-11-13
Image 2005 Chevrolet SSR Convertible Pickup 2D 50000 $24999 Puyallup Washington 2020-11-13
Image 2005 Chevrolet SSR Convertible Pickup 2D 62000 $20000 Spanaway Washington 2020-11-13
Image 2005 Chevrolet SSR Convertible Pickup 2D 23000 $28800 Woodland Washington 2020-11-13
Image 2005 Chevrolet SSR 53000 $24950 Spokane Washington 2020-11-13
Image 2005 Chevrolet SSR Convertible Pickup 2D 127000 $20000 Cave Junction Oregon 2020-11-13
Image 2005 Chevrolet SSR Convertible Pickup 2D 21000 $26500 Ashland Oregon 2020-11-13
Image 2005 Chevrolet SSR Convertible Pickup 2D 40000 $28000 Des Moines Iowa 2020-11-13
Image 2005 Chevrolet SSR Convertible Pickup 2D 12000 $29295 St Louis Missouri 2020-11-13
Image 2005 Chevrolet SSR Convertible Pickup 2D 48000 $25000 Tulsa Oklahoma 2020-11-13
Image 2005 Chevrolet SSR Convertible Pickup 2D 52000 $23850 Woodbridge Virginia 2020-11-13
Image 2005 Chevrolet SSR Convertible Pickup 2D 35000 $28900 Newfield New Jersey 2020-11-13
Image 2005 Chevrolet SSR Convertible Pickup 2D 44000 $25000 Fort Worth Texas 2020-11-13
Image 2005 Chevrolet SSR 300000 $20000 Dallas Texas 2020-11-13
Image 2005 Chevrolet SSR Convertible Pickup 2D 86000 $18995 Lufkin Texas 2020-11-13
Image 2005 Chevrolet SSR 43000 $22000 Athens Texas 2020-11-13
Image 2005 Chevrolet SSR Convertible Pickup 2D 65000 $22500 Magnolia Texas 2020-11-13
Image 2005 Chevrolet SSR Convertible Pickup 2D 10000 $25000 Shreveport Louisiana 2020-11-13
Image 2005 Chevrolet SSR Convertible Pickup 2D 63000 $24500 Lake Villa Illinois 2020-11-13
Image 2005 Chevrolet SSR 40000 $27000 Barberton Ohio 2020-11-13
Image 2005 Chevrolet SSR Convertible Pickup 2D 40000 $15000 Maple Grove Minnesota 2020-11-13
Image 2005 Chevrolet SSR 22000 $29999 Lanark Illinois 2020-11-13
Image 2005 Chevrolet SSR Convertible Pickup 2D 33000 $27500 Lake Havasu City Arizona 2020-11-13
Image 2005 Chevrolet SSR 11000 $29995 San Diego California 2020-11-13
Image 2005 Chevrolet SSR Convertible Pickup 2D 69000 $15000 Riverside California 2020-11-13
Image 2005 Chevrolet SSR 29000 $26000 Prestonsburg Kentucky 2020-11-13
Image 2005 Chevrolet SSR Convertible Pickup 2D 38000 $29500 Hillsboro Tennessee 2020-11-13
Image 2005 Chevrolet SSR Convertible Pickup 2D 36000 $23900 West Milford New Jersey 2020-11-10
Image 2005 Chevrolet SSR Convertible Pickup 2D 40000 $21500 Belchertown Massachusetts 2020-11-10
Image 2005 Chevrolet SSR Convertible Pickup 2D 50000 $24999 Puyallup Washington 2020-11-10
Image 2005 Chevrolet SSR Convertible Pickup 2D 69000 $15000 Riverside California 2020-11-07
Image 2005 Chevrolet SSR 373 $22000 Athens Texas 2020-11-07
Image 2005 Chevrolet SSR Convertible Pickup 2D 12000 $29295 St Louis Missouri 2020-11-07
Image 2005 Chevrolet SSR Convertible Pickup 2D 39000 $28888 Dallas Georgia 2020-11-06
Image 2005 Chevrolet SSR Convertible Pickup 2D 34000 $26630 Pembroke Pines Florida 2020-11-06
Image 2005 Chevrolet SSR Convertible Pickup 2D 64000 $25000 Fort Lauderdale Florida 2020-11-06
Image 2005 Chevrolet SSR Convertible Pickup 2D 129000 $13500 Cleveland Tennessee 2020-11-06
Image 2005 Chevrolet SSR Convertible Pickup 2D 63000 $24500 Lake Villa Illinois 2020-11-06
Image 2005 Chevrolet SSR Convertible Pickup 2D 35000 $28900 Newfield New Jersey 2020-11-06
Image 2005 Chevrolet SSR Convertible Pickup 2D 65000 $22500 Magnolia Texas 2020-10-30
Image 2005 Chevrolet SSR Convertible Pickup 2D 44000 $25000 Fort Worth Texas 2020-10-27
Image 2005 Chevrolet SSR Convertible Pickup 2D 48000 $29995 Tulsa Oklahoma 2020-10-27
Image 2006 Chevrolet SSR Red 49000 $25000 Hughson California 2020-11-21
Image 2006 Chevrolet SSR Convertible Pickup 2D 84000 $21500 Belchertown Massachusetts 2020-11-21
Image 2006 Chevrolet SSR Convertible Pickup 2D 17000 $35000 Phoenix Maryland 2020-11-19
Image 2006 Chevrolet SSR Convertible Pickup 2D 39000 $20300 Phoenix Arizona 2020-11-17
Image 2006 Chevrolet SSR Convertible Pickup 2D 19000 $32800 Gastonia North Carolina 2020-11-13
Image 2006 Chevrolet SSR 45000 $30000 Belleville Illinois 2020-11-13
Image 2006 Chevrolet SSR Convertible Pickup 2D 17000 $33000 Joplin Missouri 2020-11-13
Image 2006 Chevrolet SSR 87000 $33000 Hazleton Pennsylvania 2020-11-13
Image 2006 Chevrolet SSR Convertible Pickup 2D 67000 $24000 Rolesville North Carolina 2020-11-13
Image 2006 Chevrolet SSR 78000 $23500 Conroe Texas 2020-11-13
Image 2006 Chevrolet SSR Convertible Pickup 2D 111000 $17000 Clayton Oklahoma 2020-11-13
Image 2006 Chevrolet SSR 150000 $1765 South Bend Indiana 2020-11-13
Image 2006 Chevrolet SSR Convertible Pickup 2D 13000 $43900 Batavia Ohio 2020-11-13
Image 2006 Chevrolet SSR Convertible Pickup 2D 39000 $20500 Phoenix Arizona 2020-11-13
Image 2006 Chevrolet SSR 40000 $22950 Lake Havasu City Arizona 2020-11-13
Image 2006 Chevrolet SSR 190000 $12345 Las Vegas Nevada 2020-11-13
Image 2006 Chevrolet SSR Convertible Pickup 2D 79000 $32000 Sunnyvale California 2020-11-13
Image 2006 Chevrolet SSR Convertible Pickup 2D 70000 $19500 Yuba City California 2020-11-13
Image 2006 Chevrolet SSR 150000 $5100 South Bend Indiana 2020-11-10
Image 2006 Chevrolet SSR 170000 $8000 Columbia South Carolina 2020-11-10
Image 2006 Chevrolet SSR Convertible Pickup 2D 70000 $19500 Yuba City California 2020-11-06
Image 2006 Chevrolet SSR Convertible Pickup 2D 13000 $43900 Batavia Ohio 2020-11-06
Image 2006 Chevrolet SSR Convertible Pickup 2D 19000 $32800 Gastonia North Carolina 2020-11-06
Image 2006 Chevrolet SSR 87000 $33000 Hazleton Pennsylvania 2020-11-06
Image



Post Reply